Terminal Aerodrome Forecast
Issued by NWS Twin Cities, MN

Home | Current Version | Previous Version | Text Only | Print | Product List | Glossary Off
Versions: 1 2 3 4 5 6 7 8 9 10 11 12 13 14 15 16 17 18 19 20 21 22 23 24 25 26 27 28 29 30

000
FTUS43 KMPX 291329 AAB
TAFMSP
TAF AMD
KMSP 291329Z 2913/3018 13005KT 3SM BR OVC003
     FM291600 15006KT P6SM BKN008
     FM291730 16006KT P6SM SCT020
     FM292000 17006KT P6SM SKC
     FM301400 19009KT P6SM SKC=

USA.gov is the U.S. government's official web portal to all federal, state and local government web resources and services.